Time;durP1;ratioP1;P1;durP2;ratioP2;P2;SDS_P1;SDS_P2;PMS_P1;PMS_P2;Temp;Humidity;BMP_temperature;BMP_pressure;BME280_temperature;BME280_humidity;BME280_pressure;Samples;Min_cycle;Max_cycle;Signal;HPM_P1;HPM_P2
2023/07/29 00:01:12;;;;;;;29.90;13.45;;;;;;;;;;6060465;23;20079;-56
2023/07/29 00:03:39;;;;;;;32.95;15.93;;;;;;;;;;6059775;23;20576;-54
2023/07/29 00:06:06;;;;;;;36.67;16.15;;;;;;;;;;6060611;23;20357;-55
2023/07/29 00:08:41;;;;;;;32.15;15.75;;;;;;;;;;6060106;23;20031;-57
2023/07/29 00:11:08;;;;;;;27.35;14.63;;;;;;;;;;6060055;23;20027;-55
2023/07/29 00:13:35;;;;;;;38.95;15.73;;;;;;;;;;6058176;23;20174;-71
2023/07/29 00:16:16;;;;;;;27.45;13.77;;;;;;;;;;6057948;23;20361;-71
2023/07/29 00:18:44;;;;;;;40.67;17.60;;;;;;;;;;6058083;23;20031;-71
2023/07/29 00:21:19;;;;;;;42.03;18.92;;;;;;;;;;6060642;23;20034;-71
2023/07/29 00:23:46;;;;;;;43.58;19.25;;;;;;;;;;6060229;23;20069;-58
2023/07/29 00:26:13;;;;;;;49.05;20.10;;;;;;;;;;6058844;23;20026;-60
2023/07/29 00:28:47;;;;;;;50.70;21.00;;;;;;;;;;6056820;23;20022;-60
2023/07/29 00:31:15;;;;;;;37.45;18.00;;;;;;;;;;6059914;23;20094;-60
2023/07/29 00:33:48;;;;;;;44.45;18.55;;;;;;;;;;6060372;23;20027;-60
2023/07/29 00:36:16;;;;;;;54.08;21.35;;;;;;;;;;6058620;23;20562;-60
2023/07/29 00:38:43;;;;;;;58.25;21.08;;;;;;;;;;6060419;23;20022;-61
2023/07/29 00:41:16;;;;;;;36.20;18.52;;;;;;;;;;6058183;23;20030;-71
2023/07/29 00:43:44;;;;;;;37.97;16.63;;;;;;;;;;6060375;23;20023;-71
2023/07/29 00:46:17;;;;;;;59.58;21.40;;;;;;;;;;6058457;23;20406;-71
2023/07/29 00:48:45;;;;;;;58.95;21.23;;;;;;;;;;6060224;23;20031;-72
2023/07/29 00:51:12;;;;;;;61.83;22.83;;;;;;;;;;6061071;23;20059;-71
2023/07/29 00:53:47;;;;;;;48.25;19.70;;;;;;;;;;6058580;23;20039;-72
2023/07/29 00:56:14;;;;;;;57.40;22.05;;;;;;;;;;6059770;23;20094;-60
2023/07/29 00:58:48;;;;;;;45.67;19.38;;;;;;;;;;6060198;23;20030;-60
2023/07/29 01:01:15;;;;;;;69.88;22.80;;;;;;;;;;6054677;23;20372;-60
2023/07/29 01:03:45;;;;;;;55.15;21.88;;;;;;;;;;6059724;23;20023;-60
2023/07/29 01:06:48;;;;;;;58.47;21.98;;;;;;;;;;6057986;23;20030;-60
2023/07/29 01:09:41;;;;;;;82.55;24.27;;;;;;;;;;6058055;23;20380;-60
2023/07/29 01:12:13;;;;;;;58.67;22.02;;;;;;;;;;6061134;23;20106;-72
2023/07/29 01:15:11;;;;;;;54.95;21.33;;;;;;;;;;6059523;23;20030;-72
2023/07/29 01:17:54;;;;;;;39.95;18.98;;;;;;;;;;6059117;23;20061;-72
2023/07/29 01:20:23;;;;;;;46.90;20.23;;;;;;;;;;6057943;23;20544;-60
2023/07/29 01:22:57;;;;;;;48.30;20.15;;;;;;;;;;6060552;23;20139;-69
2023/07/29 01:25:24;;;;;;;63.13;22.73;;;;;;;;;;6060481;23;20754;-72
2023/07/29 01:27:52;;;;;;;47.42;20.05;;;;;;;;;;6060435;23;20023;-72
2023/07/29 01:30:38;;;;;;;56.17;23.02;;;;;;;;;;6059573;23;20395;-72
2023/07/29 01:33:10;;;;;;;49.38;21.20;;;;;;;;;;6062311;23;20023;-72
2023/07/29 01:35:47;;;;;;;58.67;21.60;;;;;;;;;;6061970;23;20023;-72
2023/07/29 01:38:18;;;;;;;52.50;20.85;;;;;;;;;;6062381;23;20090;-57
2023/07/29 01:40:52;;;;;;;48.60;21.52;;;;;;;;;;6060395;23;20090;-57
2023/07/29 01:43:23;;;;;;;60.90;21.83;;;;;;;;;;6062441;23;20338;-57
2023/07/29 01:45:50;;;;;;;44.78;20.25;;;;;;;;;;6060523;23;20030;-54
2023/07/29 01:48:25;;;;;;;43.47;20.40;;;;;;;;;;6060789;23;20400;-56
2023/07/29 01:50:53;;;;;;;43.33;19.60;;;;;;;;;;6061244;23;20034;-60
2023/07/29 01:53:20;;;;;;;56.42;20.98;;;;;;;;;;6061055;23;20031;-73
2023/07/29 01:55:54;;;;;;;52.42;20.92;;;;;;;;;;6060953;23;20078;-73
2023/07/29 01:58:21;;;;;;;51.15;19.92;;;;;;;;;;6061294;23;20027;-73
2023/07/29 02:00:54;;;;;;;51.35;20.60;;;;;;;;;;6060512;23;20074;-73
2023/07/29 02:03:22;;;;;;;47.50;19.98;;;;;;;;;;6060887;23;20441;-73
2023/07/29 02:05:49;;;;;;;;;;;;;;;;;;6061322;23;20038;-73
2023/07/29 02:08:24;;;;;;;43.08;17.70;;;;;;;;;;6061773;23;19965;-69
2023/07/29 02:10:51;;;;;;;40.88;19.33;;;;;;;;;;6058975;23;20048;-70
2023/07/29 02:13:25;;;;;;;52.15;18.98;;;;;;;;;;6061226;23;20090;-69
2023/07/29 02:15:58;;;;;;;45.72;20.25;;;;;;;;;;6060210;23;20496;-69
2023/07/29 02:18:32;;;;;;;56.03;21.63;;;;;;;;;;6060887;23;20186;-56
2023/07/29 02:20:59;;;;;;;45.65;19.52;;;;;;;;;;6061037;23;20086;-53
2023/07/29 02:23:26;;;;;;;49.30;19.98;;;;;;;;;;6061881;23;20057;-56
2023/07/29 02:26:00;;;;;;;50.72;20.20;;;;;;;;;;6060413;23;20381;-57
2023/07/29 02:28:27;;;;;;;57.10;20.95;;;;;;;;;;6061014;23;20023;-57
2023/07/29 02:31:15;;;;;;;57.17;21.23;;;;;;;;;;6060928;23;20027;-55
2023/07/29 02:33:42;;;;;;;50.50;19.63;;;;;;;;;;6058458;23;20066;-54
2023/07/29 02:36:17;;;;;;;47.97;19.90;;;;;;;;;;6061262;23;20474;-72
2023/07/29 02:38:44;;;;;;;;;;;;;;;;;;6060530;23;20027;-72
2023/07/29 02:41:12;;;;;;;59.67;20.73;;;;;;;;;;6060302;23;19917;-73
2023/07/29 02:43:50;;;;;;;50.03;19.70;;;;;;;;;;6061079;23;20026;-73
2023/07/29 02:46:18;;;;;;;58.10;21.45;;;;;;;;;;6060673;23;20023;-59
2023/07/29 02:48:52;;;;;;;52.08;20.90;;;;;;;;;;6059040;23;20023;-73
2023/07/29 02:51:19;;;;;;;45.90;19.65;;;;;;;;;;6061142;23;20042;-73
2023/07/29 02:53:46;;;;;;;30.58;15.43;;;;;;;;;;6059343;23;20305;-74
2023/07/29 02:56:19;;;;;;;37.22;17.05;;;;;;;;;;6061172;23;20023;-73
2023/07/29 02:58:47;;;;;;;41.42;18.45;;;;;;;;;;6060447;23;20030;-73
2023/07/29 03:01:20;;;;;;;57.88;21.30;;;;;;;;;;6059206;23;20037;-74
2023/07/29 03:03:55;;;;;;;42.55;18.60;;;;;;;;;;6060583;23;20398;-56
2023/07/29 03:06:29;;;;;;;48.50;19.83;;;;;;;;;;6059508;23;20408;-56
2023/07/29 03:08:56;;;;;;;46.33;18.60;;;;;;;;;;6060325;23;20031;-55
2023/07/29 03:11:23;;;;;;;36.95;16.85;;;;;;;;;;6062058;23;20098;-56
2023/07/29 03:13:58;;;;;;;48.67;19.23;;;;;;;;;;6061197;23;20094;-54
2023/07/29 03:16:31;;;;;;;;;;;;;;;;;;6056735;23;20035;-60
2023/07/29 03:19:06;;;;;;;38.17;16.20;;;;;;;;;;6060248;23;20000;-69
2023/07/29 03:21:33;;;;;;;36.10;15.82;;;;;;;;;;6059529;23;20035;-69
2023/07/29 03:24:01;;;;;;;33.80;16.27;;;;;;;;;;6061280;23;20334;-69
2023/07/29 03:26:34;;;;;;;38.17;15.95;;;;;;;;;;6060539;23;20027;-69
2023/07/29 03:29:02;;;;;;;36.08;17.80;;;;;;;;;;6058973;23;20030;-69
2023/07/29 03:31:35;;;;;;;38.40;14.90;;;;;;;;;;6060099;23;20094;-68
2023/07/29 03:34:03;;;;;;;33.55;14.95;;;;;;;;;;6060842;23;20034;-56
2023/07/29 03:36:30;;;;;;;37.95;15.35;;;;;;;;;;6060332;23;20026;-56
2023/07/29 03:39:04;;;;;;;30.85;15.00;;;;;;;;;;6060261;23;20027;-56
2023/07/29 03:41:31;;;;;;;32.95;15.82;;;;;;;;;;6060186;23;20026;-54
2023/07/29 03:44:06;;;;;;;51.10;19.75;;;;;;;;;;6060151;23;20019;-61
2023/07/29 03:46:33;;;;;;;49.10;17.80;;;;;;;;;;6059295;23;20026;-61
2023/07/29 03:49:01;;;;;;;38.60;15.68;;;;;;;;;;6060454;23;20110;-59
2023/07/29 03:51:35;;;;;;;28.45;14.15;;;;;;;;;;6060686;23;20242;-60
2023/07/29 03:54:02;;;;;;;43.17;16.77;;;;;;;;;;6060724;23;20389;-59
2023/07/29 03:56:35;;;;;;;26.33;13.20;;;;;;;;;;6059349;23;20425;-60
2023/07/29 03:59:03;;;;;;;;;;;;;;;;;;6060367;23;20059;-59
2023/07/29 04:01:30;;;;;;;23.60;11.73;;;;;;;;;;6061582;23;19922;-53
2023/07/29 04:04:05;;;;;;;27.73;13.77;;;;;;;;;;6059730;23;20026;-53
2023/07/29 04:06:32;;;;;;;32.58;13.30;;;;;;;;;;6060566;23;20097;-55
2023/07/29 04:09:05;;;;;;;27.10;13.77;;;;;;;;;;6059446;23;20030;-55
2023/07/29 04:11:33;;;;;;;25.80;13.13;;;;;;;;;;6060084;23;20469;-69
2023/07/29 04:14:00;;;;;;;23.73;12.23;;;;;;;;;;6060135;23;20031;-54
2023/07/29 04:16:40;;;;;;;20.35;10.40;;;;;;;;;;6058498;23;20034;-56
2023/07/29 04:19:07;;;;;;;16.58;10.00;;;;;;;;;;6059847;23;20054;-57
2023/07/29 04:21:42;;;;;;;21.52;11.43;;;;;;;;;;6059617;23;20413;-53
2023/07/29 04:24:09;;;;;;;17.70;10.00;;;;;;;;;;6060679;23;20050;-55
2023/07/29 04:26:36;;;;;;;15.48;9.85;;;;;;;;;;6059873;23;20035;-56
2023/07/29 04:29:10;;;;;;;17.13;9.25;;;;;;;;;;6060785;23;20074;-56
2023/07/29 04:31:37;;;;;;;;;;;;;;;;;;6060148;23;20097;-56
2023/07/29 04:34:11;;;;;;;21.33;11.20;;;;;;;;;;6060563;23;19925;-54
2023/07/29 04:36:38;;;;;;;17.15;10.40;;;;;;;;;;6058962;23;20046;-53
2023/07/29 04:39:05;;;;;;;24.75;11.15;;;;;;;;;;6059491;23;20062;-59
2023/07/29 04:41:40;;;;;;;32.58;12.35;;;;;;;;;;6059683;23;20029;-59
2023/07/29 04:44:07;;;;;;;29.38;12.45;;;;;;;;;;6060084;23;20027;-75
2023/07/29 04:46:41;;;;;;;21.27;10.60;;;;;;;;;;6060207;23;20094;-75
2023/07/29 04:49:08;;;;;;;16.20;9.15;;;;;;;;;;6059515;23;20022;-75
2023/07/29 04:51:37;;;;;;;20.30;10.63;;;;;;;;;;6059581;23;20023;-75
2023/07/29 04:54:11;;;;;;;20.33;10.25;;;;;;;;;;6058753;23;20102;-76
2023/07/29 04:56:38;;;;;;;23.70;10.68;;;;;;;;;;6059332;23;20484;-76
2023/07/29 04:59:12;;;;;;;16.40;9.82;;;;;;;;;;6059915;23;20022;-69
2023/07/29 05:01:42;;;;;;;17.10;9.65;;;;;;;;;;6061228;23;20026;-68
2023/07/29 05:04:34;;;;;;;13.77;7.43;;;;;;;;;;6061392;23;20030;-69
2023/07/29 05:07:21;;;;;;;10.35;5.88;;;;;;;;;;6061287;23;20031;-56
2023/07/29 05:10:18;;;;;;;17.05;8.18;;;;;;;;;;6062334;23;20057;-69
2023/07/29 05:13:05;;;;;;;14.38;6.97;;;;;;;;;;6060984;23;20095;-60
2023/07/29 05:16:05;;;;;;;15.85;6.47;;;;;;;;;;6061625;23;20097;-60
2023/07/29 05:18:52;;;;;;;11.23;6.80;;;;;;;;;;6061147;23;20026;-60
2023/07/29 05:21:47;;;;;;;9.90;6.45;;;;;;;;;;6060794;23;20481;-60
2023/07/29 05:24:34;;;;;;;12.93;6.57;;;;;;;;;;6062275;23;20099;-60
2023/07/29 05:27:28;;;;;;;8.95;5.82;;;;;;;;;;6059731;23;20823;-56
2023/07/29 05:30:15;;;;;;;15.35;6.97;;;;;;;;;;6062307;23;20532;-57
2023/07/29 05:33:09;;;;;;;8.98;5.25;;;;;;;;;;6061801;23;20094;-54
2023/07/29 05:36:03;;;;;;;11.05;6.18;;;;;;;;;;6061059;23;20082;-58
2023/07/29 05:38:50;;;;;;;10.30;5.68;;;;;;;;;;6061906;23;20023;-75
2023/07/29 05:41:43;;;;;;;8.27;5.28;;;;;;;;;;6060312;23;20030;-62
2023/07/29 05:44:31;;;;;;;10.18;5.45;;;;;;;;;;6055370;23;20477;-62
2023/07/29 05:47:24;;;;;;;9.45;5.60;;;;;;;;;;6057235;23;20481;-62
2023/07/29 05:50:12;;;;;;;6.10;4.55;;;;;;;;;;6061258;23;20520;-62
2023/07/29 05:53:05;;;;;;;5.40;4.25;;;;;;;;;;6055663;23;20220;-63
2023/07/29 05:55:53;;;;;;;8.35;3.50;;;;;;;;;;6060688;23;20105;-62
2023/07/29 05:58:46;;;;;;;8.00;4.10;;;;;;;;;;6060460;23;20520;-62
2023/07/29 06:01:34;;;;;;;6.90;3.83;;;;;;;;;;6057883;23;20031;-62
2023/07/29 06:04:27;;;;;;;6.15;3.78;;;;;;;;;;6061222;23;20027;-56
2023/07/29 06:07:15;;;;;;;6.70;4.00;;;;;;;;;;6060685;23;20029;-55
2023/07/29 06:10:11;;;;;;;5.60;3.92;;;;;;;;;;6062696;23;20023;-53
2023/07/29 06:12:56;;;;;;;6.50;3.65;;;;;;;;;;6055707;23;20453;-56
2023/07/29 06:16:03;;;;;;;7.75;3.92;;;;;;;;;;6059498;23;20090;-57
2023/07/29 06:18:58;;;;;;;5.03;3.38;;;;;;;;;;6059072;23;20085;-57
2023/07/29 06:21:52;;;;;;;6.10;3.70;;;;;;;;;;6060306;23;20469;-54
2023/07/29 06:24:39;;;;;;;5.22;3.28;;;;;;;;;;6059856;23;20077;-56
2023/07/29 06:27:33;;;;;;;7.20;3.65;;;;;;;;;;6059033;23;20543;-57
2023/07/29 06:30:20;;;;;;;7.75;3.58;;;;;;;;;;6057973;23;20034;-57
2023/07/29 06:33:13;;;;;;;10.35;3.85;;;;;;;;;;6060305;23;20516;-74
2023/07/29 06:36:01;;;;;;;5.05;3.28;;;;;;;;;;6057537;23;20102;-69
2023/07/29 06:38:54;;;;;;;5.57;3.60;;;;;;;;;;6058816;23;20469;-71
2023/07/29 06:41:42;;;;;;;4.95;3.50;;;;;;;;;;6059095;23;20106;-69
2023/07/29 06:44:35;;;;;;;8.00;3.75;;;;;;;;;;6060466;23;20095;-67
2023/07/29 06:47:23;;;;;;;9.27;3.47;;;;;;;;;;6058959;23;20473;-69
2023/07/29 06:50:17;;;;;;;7.07;3.53;;;;;;;;;;6057342;23;20485;-68
2023/07/29 06:53:04;;;;;;;8.20;3.40;;;;;;;;;;6061736;23;20027;-55
2023/07/29 06:56:01;;;;;;;5.18;3.10;;;;;;;;;;6061359;23;20497;-51
2023/07/29 06:58:48;;;;;;;7.85;3.25;;;;;;;;;;6056683;23;20339;-54
2023/07/29 07:01:41;;;;;;;6.47;3.35;;;;;;;;;;6058658;23;20419;-61
2023/07/29 07:04:29;;;;;;;5.22;3.10;;;;;;;;;;6059643;23;20469;-56
2023/07/29 07:07:22;;;;;;;7.30;3.30;;;;;;;;;;6056465;23;20026;-57
2023/07/29 07:10:17;;;;;;;5.93;3.00;;;;;;;;;;6060717;23;20027;-56
2023/07/29 07:13:04;;;;;;;5.55;3.25;;;;;;;;;;6058419;23;20476;-57
2023/07/29 07:15:58;;;;;;;4.35;3.13;;;;;;;;;;6059657;23;20026;-57
2023/07/29 07:18:52;;;;;;;7.90;3.25;;;;;;;;;;6056931;23;20106;-55
2023/07/29 07:21:19;;;;;;;;;;;;;;;;;;6058120;23;20030;-53
2023/07/29 07:23:53;;;;;;;5.40;3.30;;;;;;;;;;6056736;23;19922;-67
2023/07/29 07:26:20;;;;;;;;;;;;;;;;;;6058312;23;20031;-66
2023/07/29 07:28:47;;;;;;;4.65;2.67;;;;;;;;;;6058374;23;20321;-66
2023/07/29 07:31:20;;;;;;;5.63;2.72;;;;;;;;;;6058905;23;20100;-66
2023/07/29 07:33:48;;;;;;;4.15;2.72;;;;;;;;;;6058053;23;20033;-66
2023/07/29 07:36:21;;;;;;;6.05;3.17;;;;;;;;;;6057878;23;20082;-66
2023/07/29 07:38:49;;;;;;;5.95;2.67;;;;;;;;;;6057330;23;20022;-56
2023/07/29 07:41:16;;;;;;;5.88;3.20;;;;;;;;;;6058778;23;20027;-58
2023/07/29 07:43:49;;;;;;;5.85;2.95;;;;;;;;;;6059652;23;20078;-58
2023/07/29 07:46:17;;;;;;;5.57;3.00;;;;;;;;;;6061104;23;20019;-58
2023/07/29 07:48:52;;;;;;;3.65;2.80;;;;;;;;;;6056286;23;20065;-58
2023/07/29 07:51:19;;;;;;;4.30;2.90;;;;;;;;;;6055653;23;20028;-59
2023/07/29 07:53:46;;;;;;;7.85;2.95;;;;;;;;;;6057847;23;20030;-58
2023/07/29 07:56:19;;;;;;;4.97;2.97;;;;;;;;;;6059201;23;20023;-59
2023/07/29 07:58:47;;;;;;;5.97;2.85;;;;;;;;;;6057764;23;20477;-58
2023/07/29 08:01:21;;;;;;;3.55;2.70;;;;;;;;;;6057879;23;20026;-52
2023/07/29 08:03:48;;;;;;;3.75;2.55;;;;;;;;;;6058045;23;20528;-53
2023/07/29 08:06:16;;;;;;;5.75;2.60;;;;;;;;;;6050481;23;20030;-51
2023/07/29 08:08:50;;;;;;;4.47;2.40;;;;;;;;;;6048477;23;20551;-53
2023/07/29 08:11:17;;;;;;;4.10;2.40;;;;;;;;;;6055950;23;20027;-50
2023/07/29 08:13:44;;;;;;;5.25;2.45;;;;;;;;;;6060000;23;20054;-52
2023/07/29 08:16:31;;;;;;;3.92;2.40;;;;;;;;;;6057254;23;20094;-58
2023/07/29 08:19:09;;;;;;;4.95;2.42;;;;;;;;;;6059381;23;20136;-70
2023/07/29 08:21:43;;;;;;;3.30;2.65;;;;;;;;;;6059428;23;20034;-69
2023/07/29 08:24:10;;;;;;;4.38;2.63;;;;;;;;;;6060443;23;20528;-69
2023/07/29 08:26:37;;;;;;;3.80;2.40;;;;;;;;;;6059407;23;20473;-69
2023/07/29 08:29:11;;;;;;;5.15;2.50;;;;;;;;;;6054819;23;20079;-70
2023/07/29 08:31:38;;;;;;;3.40;2.80;;;;;;;;;;6056949;23;20252;-70
2023/07/29 08:34:12;;;;;;;4.00;2.58;;;;;;;;;;6059278;23;20054;-58
2023/07/29 08:36:53;;;;;;;3.70;2.33;;;;;;;;;;6057599;23;20433;-59
2023/07/29 08:39:34;;;;;;;3.40;2.05;;;;;;;;;;6059729;23;20034;-58
2023/07/29 08:42:05;;;;;;;4.72;2.22;;;;;;;;;;6059004;23;20065;-59
2023/07/29 08:44:57;;;;;;;5.07;2.33;;;;;;;;;;6051159;23;20034;-62
2023/07/29 08:47:54;;;;;;;3.03;2.20;;;;;;;;;;6058142;23;20085;-58
2023/07/29 08:50:42;;;;;;;3.22;2.40;;;;;;;;;;6059219;23;20023;-58
2023/07/29 08:53:36;;;;;;;3.13;2.10;;;;;;;;;;6057899;23;20393;-57
2023/07/29 08:56:30;;;;;;;4.80;2.33;;;;;;;;;;6058439;23;20459;-58
2023/07/29 08:59:18;;;;;;;3.90;2.45;;;;;;;;;;6057174;23;20026;-58
2023/07/29 09:02:12;;;;;;;3.63;2.53;;;;;;;;;;6057379;23;20054;-55
2023/07/29 09:04:59;;;;;;;5.22;2.17;;;;;;;;;;6057214;23;20445;-62
2023/07/29 09:07:54;;;;;;;4.85;2.33;;;;;;;;;;6058976;23;20534;-63
2023/07/29 09:10:41;;;;;;;4.53;2.40;;;;;;;;;;6058663;23;20031;-63
2023/07/29 09:13:35;;;;;;;6.93;2.63;;;;;;;;;;6058757;23;20050;-63
2023/07/29 09:16:28;;;;;;;3.08;2.20;;;;;;;;;;6057955;23;20866;-63
2023/07/29 09:19:25;;;;;;;5.28;2.67;;;;;;;;;;6059062;23;20101;-63
2023/07/29 09:22:20;;;;;;;3.47;2.20;;;;;;;;;;6059795;23;20070;-57
2023/07/29 09:25:16;;;;;;;3.67;2.38;;;;;;;;;;6055611;23;20030;-63
2023/07/29 09:28:01;;;;;;;4.22;2.38;;;;;;;;;;6057793;23;20082;-63
2023/07/29 09:30:55;;;;;;;5.47;2.47;;;;;;;;;;6058260;23;20030;-62
2023/07/29 09:33:42;;;;;;;2.90;2.42;;;;;;;;;;6059027;23;20025;-63
2023/07/29 09:36:36;;;;;;;3.85;2.08;;;;;;;;;;6058221;23;20030;-63
2023/07/29 09:39:24;;;;;;;3.97;2.40;;;;;;;;;;6058553;23;20409;-63
2023/07/29 09:42:19;;;;;;;3.30;2.20;;;;;;;;;;6059040;23;20027;-62
2023/07/29 09:45:06;;;;;;;3.25;2.10;;;;;;;;;;6059371;23;20457;-63
2023/07/29 09:48:00;;;;;;;3.95;2.40;;;;;;;;;;6059450;23;20019;-63
2023/07/29 09:50:53;;;;;;;2.55;2.03;;;;;;;;;;6061241;23;20398;-62
2023/07/29 09:53:47;;;;;;;3.70;2.13;;;;;;;;;;6060630;23;20026;-63
2023/07/29 09:56:39;;;;;;;3.17;2.30;;;;;;;;;;6061070;23;20536;-63
2023/07/29 09:59:36;;;;;;;5.17;2.70;;;;;;;;;;6061105;23;20031;-58
2023/07/29 10:02:25;;;;;;;3.65;2.50;;;;;;;;;;6059745;23;20257;-69
2023/07/29 10:05:18;;;;;;;3.47;2.33;;;;;;;;;;6060186;23;20496;-69
2023/07/29 10:08:13;;;;;;;4.00;2.53;;;;;;;;;;6061721;23;20102;-69
2023/07/29 10:11:00;;;;;;;5.38;2.67;;;;;;;;;;6059751;23;20051;-70
2023/07/29 10:13:54;;;;;;;3.03;2.40;;;;;;;;;;6059762;23;20090;-70
2023/07/29 10:16:49;;;;;;;4.85;2.40;;;;;;;;;;6056687;23;20532;-62
2023/07/29 10:19:44;;;;;;;3.53;2.75;;;;;;;;;;6060594;23;20030;-56
2023/07/29 10:22:39;;;;;;;4.85;2.40;;;;;;;;;;6058566;23;20386;-57
2023/07/29 10:25:41;;;;;;;4.68;3.17;;;;;;;;;;6060447;23;20086;-56
2023/07/29 10:28:26;;;;;;;3.00;2.70;;;;;;;;;;6059262;23;20557;-57
2023/07/29 10:31:21;;;;;;;4.95;2.72;;;;;;;;;;6058758;23;20465;-56
2023/07/29 10:34:08;;;;;;;4.47;2.83;;;;;;;;;;6060803;23;20481;-59
2023/07/29 10:37:02;;;;;;;6.88;3.10;;;;;;;;;;6060625;23;20094;-55
2023/07/29 10:39:53;;;;;;;7.28;2.90;;;;;;;;;;6058471;23;20023;-58
2023/07/29 10:43:00;;;;;;;3.92;2.70;;;;;;;;;;6059064;23;20027;-59
2023/07/29 10:45:47;;;;;;;5.82;2.80;;;;;;;;;;6059520;23;20026;-58
2023/07/29 10:48:43;;;;;;;5.25;2.90;;;;;;;;;;6059290;23;20031;-58
2023/07/29 10:51:32;;;;;;;5.40;3.10;;;;;;;;;;6060244;23;20469;-59
2023/07/29 10:54:25;;;;;;;5.00;2.90;;;;;;;;;;6059306;23;20075;-70
2023/07/29 10:57:16;;;;;;;3.08;2.53;;;;;;;;;;6059140;23;20469;-62
2023/07/29 11:00:10;;;;;;;3.25;2.70;;;;;;;;;;6059785;23;20402;-62
2023/07/29 11:03:02;;;;;;;6.72;2.92;;;;;;;;;;6059186;23;20074;-62
2023/07/29 11:05:56;;;;;;;3.67;2.67;;;;;;;;;;6060581;23;20082;-62
2023/07/29 11:08:45;;;;;;;4.50;2.83;;;;;;;;;;6060175;23;20023;-62
2023/07/29 11:11:39;;;;;;;4.68;2.78;;;;;;;;;;6060000;23;20023;-54
2023/07/29 11:14:27;;;;;;;4.43;2.80;;;;;;;;;;6060439;23;20023;-55
2023/07/29 11:17:28;;;;;;;4.72;3.00;;;;;;;;;;6058072;23;20019;-54
2023/07/29 11:20:16;;;;;;;4.28;3.25;;;;;;;;;;6061384;23;20027;-64
2023/07/29 11:23:09;;;;;;;8.18;3.05;;;;;;;;;;6059716;23;20038;-52
2023/07/29 11:25:58;;;;;;;4.70;2.78;;;;;;;;;;6058952;23;20090;-60
2023/07/29 11:28:51;;;;;;;4.18;3.25;;;;;;;;;;6058116;23;20372;-60
2023/07/29 11:31:41;;;;;;;4.30;2.80;;;;;;;;;;6057610;23;20029;-60
2023/07/29 11:34:35;;;;;;;4.38;3.05;;;;;;;;;;6061190;23;20027;-60
2023/07/29 11:37:22;;;;;;;8.07;2.90;;;;;;;;;;6059570;23;20321;-60
2023/07/29 11:40:20;;;;;;;4.50;3.28;;;;;;;;;;6059700;23;20465;-52
2023/07/29 11:43:07;;;;;;;4.70;2.95;;;;;;;;;;6059804;23;20027;-53
2023/07/29 11:46:08;;;;;;;4.00;3.03;;;;;;;;;;6059333;23;20019;-50
2023/07/29 11:48:55;;;;;;;4.40;3.22;;;;;;;;;;6059012;23;20034;-60
2023/07/29 11:51:49;;;;;;;4.82;3.33;;;;;;;;;;6059301;23;20078;-68
2023/07/29 11:54:40;;;;;;;7.90;3.25;;;;;;;;;;6059127;23;20030;-55
2023/07/29 11:57:35;;;;;;;5.53;2.92;;;;;;;;;;6059637;23;20346;-55
2023/07/29 12:00:22;;;;;;;5.30;3.13;;;;;;;;;;6059599;23;20034;-55
2023/07/29 12:03:17;;;;;;;4.07;3.30;;;;;;;;;;6059509;23;20094;-53
2023/07/29 12:06:04;;;;;;;3.75;2.72;;;;;;;;;;6059335;23;20031;-53
2023/07/29 12:08:58;;;;;;;4.07;3.30;;;;;;;;;;6060202;23;20023;-53
2023/07/29 12:11:46;;;;;;;5.93;3.03;;;;;;;;;;6058561;23;20062;-51
2023/07/29 12:14:43;;;;;;;4.65;2.85;;;;;;;;;;6058387;23;20023;-53
2023/07/29 12:17:43;;;;;;;5.70;2.88;;;;;;;;;;6058747;23;20023;-52
2023/07/29 12:20:37;;;;;;;3.70;2.92;;;;;;;;;;6059896;23;20487;-59
2023/07/29 12:23:27;;;;;;;4.00;2.83;;;;;;;;;;6059292;23;20050;-59
2023/07/29 12:26:27;;;;;;;3.20;2.85;;;;;;;;;;6059427;23;20023;-59
2023/07/29 12:29:15;;;;;;;7.88;3.15;;;;;;;;;;6057912;23;20487;-59
2023/07/29 12:32:09;;;;;;;4.25;2.85;;;;;;;;;;6059571;23;20026;-60
2023/07/29 12:34:56;;;;;;;3.42;2.40;;;;;;;;;;6058537;23;20102;-59
2023/07/29 12:38:00;;;;;;;4.60;2.90;;;;;;;;;;6059480;23;20022;-53
2023/07/29 12:40:47;;;;;;;3.25;2.50;;;;;;;;;;6059464;23;20552;-53
2023/07/29 12:43:40;;;;;;;3.85;2.55;;;;;;;;;;6058954;23;20527;-53
2023/07/29 12:46:30;;;;;;;4.25;2.53;;;;;;;;;;6060415;23;20030;-60
2023/07/29 12:49:24;;;;;;;6.15;2.47;;;;;;;;;;6061933;23;20033;-52
2023/07/29 12:52:11;;;;;;;7.53;2.40;;;;;;;;;;6060241;23;20097;-54
2023/07/29 12:55:05;;;;;;;2.35;2.00;;;;;;;;;;6060642;23;20023;-56
2023/07/29 12:57:53;;;;;;;3.75;2.47;;;;;;;;;;6061412;23;20087;-54
2023/07/29 13:00:47;;;;;;;2.85;2.40;;;;;;;;;;6060447;23;20082;-54
2023/07/29 13:03:34;;;;;;;4.00;2.33;;;;;;;;;;6061479;23;20035;-54
2023/07/29 13:06:28;;;;;;;2.83;2.53;;;;;;;;;;6061337;23;20023;-62
2023/07/29 13:09:22;;;;;;;3.47;2.40;;;;;;;;;;6060936;23;20023;-63
2023/07/29 13:12:16;;;;;;;3.90;2.92;;;;;;;;;;6061088;23;20026;-62
2023/07/29 13:15:10;;;;;;;9.10;3.25;;;;;;;;;;6059759;23;20034;-59
2023/07/29 13:18:10;;;;;;;5.15;3.10;;;;;;;;;;6032745;23;20031;-59
2023/07/29 13:20:58;;;;;;;8.07;3.15;;;;;;;;;;6033554;23;20019;-59
2023/07/29 13:23:52;;;;;;;6.90;3.00;;;;;;;;;;6032493;23;20027;-59
2023/07/29 13:26:39;;;;;;;6.07;2.88;;;;;;;;;;6031999;23;20027;-58
2023/07/29 13:29:33;;;;;;;5.18;2.70;;;;;;;;;;6034068;23;20023;-59
2023/07/29 13:32:23;;;;;;;4.70;2.80;;;;;;;;;;6031436;23;20517;-58
2023/07/29 13:35:17;;;;;;;3.30;2.80;;;;;;;;;;6033423;23;20478;-56
2023/07/29 13:38:11;;;;;;;6.15;2.80;;;;;;;;;;6028020;23;20042;-58
2023/07/29 13:40:58;;;;;;;6.70;2.78;;;;;;;;;;6032423;23;20086;-57
2023/07/29 13:43:52;;;;;;;4.38;2.63;;;;;;;;;;6030191;23;20031;-52
2023/07/29 13:46:39;;;;;;;6.53;3.10;;;;;;;;;;6030225;23;20027;-67
2023/07/29 13:49:13;;;;;;;3.95;2.75;;;;;;;;;;6033493;23;20024;-68
2023/07/29 13:51:42;;;;;;;3.90;2.75;;;;;;;;;;6033351;23;20019;-68
2023/07/29 13:54:09;;;;;;;4.50;2.45;;;;;;;;;;6032110;23;20038;-68
2023/07/29 13:56:43;;;;;;;3.58;2.30;;;;;;;;;;6030705;23;20461;-69
2023/07/29 13:59:30;;;;;;;4.68;2.70;;;;;;;;;;6029379;23;20027;-68
2023/07/29 14:02:26;;;;;;;3.75;2.70;;;;;;;;;;6024451;23;20107;-61
2023/07/29 14:05:12;;;;;;;4.07;3.03;;;;;;;;;;6029329;23;20075;-52
2023/07/29 14:08:05;;;;;;;6.57;2.88;;;;;;;;;;6030653;23;20039;-53
2023/07/29 14:10:52;;;;;;;3.92;2.83;;;;;;;;;;6028363;23;20560;-53
2023/07/29 14:13:46;;;;;;;3.65;2.30;;;;;;;;;;6024429;23;20569;-50
2023/07/29 14:16:39;;;;;;;3.90;2.60;;;;;;;;;;6044287;23;20027;-49
2023/07/29 14:19:39;;;;;;;3.72;2.30;;;;;;;;;;6057337;23;20026;-51
2023/07/29 14:22:27;;;;;;;5.20;2.75;;;;;;;;;;6058218;23;20033;-52
2023/07/29 14:25:21;;;;;;;4.20;2.35;;;;;;;;;;6058922;23;20070;-60
2023/07/29 14:28:08;;;;;;;4.43;2.55;;;;;;;;;;6058560;23;20023;-60
2023/07/29 14:31:02;;;;;;;5.93;2.10;;;;;;;;;;6058924;23;20356;-59
2023/07/29 14:33:49;;;;;;;3.45;2.28;;;;;;;;;;6058247;23;20455;-60
2023/07/29 14:36:43;;;;;;;2.70;1.85;;;;;;;;;;6057068;23;20086;-59
2023/07/29 14:39:30;;;;;;;2.53;1.98;;;;;;;;;;6055622;23;20038;-68
2023/07/29 14:42:24;;;;;;;2.78;2.00;;;;;;;;;;6058338;23;20027;-61
2023/07/29 14:45:11;;;;;;;4.38;2.10;;;;;;;;;;6058067;23;20098;-61
2023/07/29 14:48:05;;;;;;;2.65;1.90;;;;;;;;;;6057476;23;20087;-61
2023/07/29 14:50:52;;;;;;;2.45;1.85;;;;;;;;;;6056299;23;20048;-60
2023/07/29 14:53:46;;;;;;;2.40;1.88;;;;;;;;;;6055251;23;20094;-60
2023/07/29 14:56:40;;;;;;;2.13;1.75;;;;;;;;;;6055949;23;20413;-63
2023/07/29 14:59:27;;;;;;;2.67;1.70;;;;;;;;;;6057350;23;20034;-54
2023/07/29 15:02:22;;;;;;;3.72;2.22;;;;;;;;;;6056439;23;20027;-53
2023/07/29 15:05:08;;;;;;;3.28;1.80;;;;;;;;;;6054609;23;20492;-53
2023/07/29 15:08:02;;;;;;;2.72;1.67;;;;;;;;;;6054723;23;20023;-55
2023/07/29 15:10:56;;;;;;;1.95;1.65;;;;;;;;;;6057644;23;20094;-55
2023/07/29 15:13:43;;;;;;;2.15;1.63;;;;;;;;;;6057072;23;20102;-53
2023/07/29 15:16:43;;;;;;;1.83;1.60;;;;;;;;;;6056242;23;20090;-58
2023/07/29 15:19:31;;;;;;;6.38;1.80;;;;;;;;;;6056588;23;20564;-58
2023/07/29 15:22:25;;;;;;;2.72;1.70;;;;;;;;;;6059966;23;20038;-58
2023/07/29 15:25:12;;;;;;;1.42;1.33;;;;;;;;;;6060848;23;20023;-57
2023/07/29 15:28:06;;;;;;;2.10;1.55;;;;;;;;;;6058482;23;20023;-70
2023/07/29 15:30:54;;;;;;;2.80;1.77;;;;;;;;;;6059651;23;20589;-70
2023/07/29 15:33:47;;;;;;;2.20;1.55;;;;;;;;;;6058000;23;20473;-70
2023/07/29 15:36:34;;;;;;;2.15;1.83;;;;;;;;;;6058708;23;20030;-70
2023/07/29 15:39:28;;;;;;;1.52;1.42;;;;;;;;;;6058876;23;20078;-70
2023/07/29 15:42:15;;;;;;;1.90;1.70;;;;;;;;;;6060331;23;20019;-70
2023/07/29 15:45:09;;;;;;;2.00;1.80;;;;;;;;;;6061136;23;20054;-70
2023/07/29 15:47:57;;;;;;;4.75;1.80;;;;;;;;;;6057365;23;20027;-69
2023/07/29 15:50:51;;;;;;;2.00;1.80;;;;;;;;;;6060419;23;20090;-69
2023/07/29 15:53:38;;;;;;;1.60;1.50;;;;;;;;;;6054070;23;20023;-58
2023/07/29 15:56:35;;;;;;;2.40;1.65;;;;;;;;;;6059212;23;20034;-70
2023/07/29 15:59:19;;;;;;;1.95;1.60;;;;;;;;;;6058419;23;20394;-70
2023/07/29 16:02:13;;;;;;;2.08;1.60;;;;;;;;;;6059243;23;20074;-70
2023/07/29 16:05:08;;;;;;;4.40;1.55;;;;;;;;;;6058619;23;20419;-70
2023/07/29 16:07:57;;;;;;;2.72;1.83;;;;;;;;;;6058995;23;20465;-70